Time;durP1;ratioP1;P1;durP2;ratioP2;P2;SDS_P1;SDS_P2;PMS_P1;PMS_P2;Temp;Humidity;BMP_temperature;BMP_pressure;BME280_temperature;BME280_humidity;BME280_pressure;Samples;Min_cycle;Max_cycle;Signal;HPM_P1;HPM_P2
2023/02/17 00:00:59;;;;;;;1999.90;999.90;;;11.00;99.90;;;;;;5093443;28;20503;-75
2023/02/17 00:03:25;;;;;;;1999.90;999.90;;;11.10;99.90;;;;;;5093676;28;20025;-75
2023/02/17 00:05:50;;;;;;;1999.90;999.90;;;11.10;99.90;;;;;;5093563;28;20174;-80
2023/02/17 00:08:16;;;;;;;1999.90;999.90;;;11.10;99.90;;;;;;5093710;28;20551;-81
2023/02/17 00:10:42;;;;;;;1999.90;999.90;;;11.10;99.90;;;;;;5093375;28;20115;-81
2023/02/17 00:13:07;;;;;;;1999.90;999.90;;;11.10;99.90;;;;;;5075245;28;20018;-80
2023/02/17 00:15:33;;;;;;;1999.90;999.90;;;11.10;99.90;;;;;;5093453;28;20028;-80
2023/02/17 00:17:59;;;;;;;1999.90;999.90;;;11.10;99.90;;;;;;5093592;28;20066;-74
2023/02/17 00:20:24;;;;;;;1999.90;999.90;;;11.10;99.90;;;;;;5093600;28;20543;-80
2023/02/17 00:22:50;;;;;;;1999.90;999.90;;;11.20;99.90;;;;;;5093154;28;20024;-80
2023/02/17 00:25:15;;;;;;;1999.90;999.90;;;11.20;99.90;;;;;;5093046;28;20036;-74
2023/02/17 00:27:41;;;;;;;1999.90;999.90;;;11.20;99.90;;;;;;5093054;28;20020;-75
2023/02/17 00:30:07;;;;;;;1999.90;999.90;;;11.30;99.90;;;;;;5075148;28;20401;-80
2023/02/17 00:32:33;;;;;;;1999.90;999.90;;;11.20;99.90;;;;;;5093227;28;20024;-80
2023/02/17 00:34:59;;;;;;;1999.90;999.90;;;11.30;99.90;;;;;;5093179;28;20030;-79
2023/02/17 00:37:25;;;;;;;1999.90;999.90;;;11.20;99.90;;;;;;5092571;28;20176;-74
2023/02/17 00:39:51;;;;;;;1999.90;999.90;;;11.20;99.90;;;;;;5092926;28;20024;-79
2023/02/17 00:42:16;;;;;;;1999.90;999.90;;;11.20;99.90;;;;;;5092929;28;20077;-74
2023/02/17 00:44:42;;;;;;;1999.90;999.90;;;11.20;99.90;;;;;;5091998;28;20032;-74
2023/02/17 00:47:07;;;;;;;1999.90;999.90;;;11.20;99.90;;;;;;5090933;28;20052;-79
2023/02/17 00:49:33;;;;;;;1999.90;999.90;;;11.20;99.90;;;;;;5092763;28;20043;-79
2023/02/17 00:52:00;;;;;;;1999.90;999.90;;;11.20;99.90;;;;;;5092734;28;20024;-74
2023/02/17 00:54:27;;;;;;;1999.90;999.90;;;11.20;99.90;;;;;;5092195;28;20090;-75
2023/02/17 00:56:52;;;;;;;1999.90;999.90;;;11.20;99.90;;;;;;5092743;28;20015;-79
2023/02/17 00:59:18;;;;;;;1999.90;999.90;;;11.20;99.90;;;;;;5092155;28;20536;-75
2023/02/17 01:01:44;;;;;;;1999.90;999.90;;;11.30;99.90;;;;;;5074776;28;20028;-80
2023/02/17 01:04:10;;;;;;;1999.90;999.90;;;11.30;99.90;;;;;;5092849;28;20073;-74
2023/02/17 01:06:37;;;;;;;1999.90;999.90;;;11.30;99.90;;;;;;5092723;28;20067;-74
2023/02/17 01:09:05;;;;;;;1999.90;999.90;;;11.30;99.90;;;;;;5092180;28;20294;-80
2023/02/17 01:11:33;;;;;;;1999.90;999.90;;;11.30;99.90;;;;;;5092203;28;20032;-79
2023/02/17 01:14:00;;;;;;;1999.90;999.90;;;11.30;99.90;;;;;;5092665;28;20492;-74
2023/02/17 01:16:34;;;;;;;1999.90;999.90;;;11.30;99.90;;;;;;5091966;28;20031;-75
2023/02/17 01:19:02;;;;;;;1999.90;999.90;;;11.30;99.90;;;;;;5092053;28;20008;-74
2023/02/17 01:21:30;;;;;;;1999.90;999.90;;;11.30;99.90;;;;;;5092236;28;20020;-74
2023/02/17 01:23:58;;;;;;;1999.90;999.90;;;11.30;99.90;;;;;;5092369;28;20522;-80
2023/02/17 01:26:26;;;;;;;1999.90;999.90;;;11.30;99.90;;;;;;5092352;28;20442;-79
2023/02/17 01:28:52;;;;;;;1999.90;999.90;;;11.30;99.90;;;;;;5092249;28;20085;-74
2023/02/17 01:31:19;;;;;;;1999.90;999.90;;;11.40;99.90;;;;;;5091891;28;20336;-74
2023/02/17 01:33:45;;;;;;;1999.90;999.90;;;11.40;99.90;;;;;;5092136;28;20081;-74
2023/02/17 01:36:13;;;;;;;1999.90;999.90;;;11.40;99.90;;;;;;5092236;28;20020;-79
2023/02/17 01:38:38;;;;;;;1999.90;999.90;;;11.40;99.90;;;;;;5091756;28;20504;-75
2023/02/17 01:41:05;;;;;;;1999.90;999.90;;;11.40;99.90;;;;;;5091863;28;20020;-80
2023/02/17 01:43:31;;;;;;;1999.90;999.90;;;11.40;99.90;;;;;;5091491;28;20514;-75
2023/02/17 01:45:59;;;;;;;1999.90;999.90;;;11.40;99.90;;;;;;5078741;28;20052;-74
2023/02/17 01:48:31;;;;;;;1999.90;999.90;;;11.40;99.90;;;;;;5110035;28;20072;-80
2023/02/17 01:51:04;;;;;;;1999.90;999.90;;;11.40;99.90;;;;;;5112106;28;20055;-74
2023/02/17 01:53:39;;;;;;;1999.90;999.90;;;11.40;99.90;;;;;;5093994;28;20055;-80
2023/02/17 01:56:06;;;;;;;1999.90;999.90;;;11.40;99.90;;;;;;5112401;28;20391;-74
2023/02/17 01:58:32;;;;;;;1999.90;999.90;;;11.30;99.90;;;;;;5112440;28;20019;-74
2023/02/17 02:01:00;;;;;;;1999.90;999.90;;;11.30;99.90;;;;;;5112194;28;20037;-74
2023/02/17 02:03:28;;;;;;;1999.90;999.90;;;11.30;99.90;;;;;;5112041;28;20090;-80
2023/02/17 02:05:54;;;;;;;1999.90;999.90;;;11.40;99.90;;;;;;5113297;28;20452;-80
2023/02/17 02:08:20;;;;;;;1999.90;999.90;;;11.40;99.90;;;;;;5116700;28;20035;-75
2023/02/17 02:10:46;;;;;;;1999.90;999.90;;;11.40;99.90;;;;;;5116360;28;20484;-74
2023/02/17 02:13:11;;;;;;;1999.90;999.90;;;11.40;99.90;;;;;;5116188;28;20020;-75
2023/02/17 02:15:52;;;;;;;1999.90;999.90;;;11.40;99.90;;;;;;5115882;28;20027;-80
2023/02/17 02:18:21;;;;;;;1999.90;999.90;;;11.40;99.90;;;;;;5116409;28;20040;-74
2023/02/17 02:20:49;;;;;;;1999.90;999.90;;;11.40;99.90;;;;;;5097222;28;20024;-74
2023/02/17 02:23:33;;;;;;;1999.90;999.90;;;11.40;99.90;;;;;;5115940;28;20023;-80
2023/02/17 02:26:41;;;;;;;1999.90;999.90;;;11.40;99.90;;;;;;5116154;28;20032;-74
2023/02/17 02:29:32;;;;;;;1999.90;999.90;;;11.50;99.90;;;;;;5050817;28;20373;-75
2023/02/17 02:32:29;;;;;;;1999.90;999.90;;;11.50;99.90;;;;;;5076933;28;20491;-74
2023/02/17 02:35:05;;;;;;;1999.90;999.90;;;11.50;99.90;;;;;;5115694;28;20441;-80
2023/02/17 02:38:09;;;;;;;1999.90;999.90;;;11.50;99.90;;;;;;5113058;28;20420;-74
2023/02/17 02:40:39;;;;;;;1999.90;999.90;;;11.50;99.90;;;;;;5047236;28;20453;-81
2023/02/17 02:43:04;;;;;;;1999.90;999.90;;;11.60;99.90;;;;;;5094487;28;20077;-76
2023/02/17 02:45:30;;;;;;;1999.90;999.90;;;11.70;99.90;;;;;;5098404;28;20039;-77
2023/02/17 02:47:57;;;;;;;1999.90;999.90;;;11.70;99.90;;;;;;5115724;28;20024;-75
2023/02/17 02:51:20;;;;;;;1999.90;999.90;;;11.70;99.90;;;;;;5115692;28;20024;-75
2023/02/17 02:54:09;;;;;;;1999.90;999.90;;;11.70;99.90;;;;;;5012927;28;20038;-80
2023/02/17 02:57:07;;;;;;;1999.90;999.90;;;11.70;99.90;;;;;;5012875;28;20814;-75
2023/02/17 02:59:46;;;;;;;1999.90;999.90;;;11.70;99.90;;;;;;5012828;28;20038;-74
2023/02/17 03:02:14;;;;;;;1999.90;999.90;;;11.70;99.90;;;;;;5012917;28;20030;-80
2023/02/17 03:04:58;;;;;;;1999.90;999.90;;;11.70;99.90;;;;;;5012753;28;20164;-80
2023/02/17 03:07:29;;;;;;;1999.90;999.90;;;11.70;99.90;;;;;;5012514;28;20033;-75
2023/02/17 03:09:56;;;;;;;1999.90;999.90;;;11.70;99.90;;;;;;5012794;28;20030;-75
2023/02/17 03:12:23;;;;;;;1999.90;999.90;;;11.70;99.90;;;;;;5012433;28;20034;-74
2023/02/17 03:14:52;;;;;;;1999.90;999.90;;;11.70;99.90;;;;;;5012713;28;20029;-74
2023/02/17 03:17:18;;;;;;;1999.90;999.90;;;11.70;99.90;;;;;;5011631;28;20046;-74
2023/02/17 03:19:47;;;;;;;1999.90;999.90;;;11.70;99.90;;;;;;5012595;28;20060;-75
2023/02/17 03:22:28;;;;;;;1999.90;999.90;;;11.70;99.90;;;;;;5012427;28;20056;-80
2023/02/17 03:24:54;;;;;;;1999.90;999.90;;;11.70;99.90;;;;;;5079705;28;20513;-80
2023/02/17 03:27:19;;;;;;;1999.90;999.90;;;11.80;99.90;;;;;;5114617;28;20134;-75
2023/02/17 03:29:45;;;;;;;1999.90;999.90;;;11.70;99.90;;;;;;5114656;28;20024;-75
2023/02/17 03:32:11;;;;;;;1999.90;999.90;;;11.80;99.90;;;;;;5114940;28;20031;-75
2023/02/17 03:34:36;;;;;;;1999.90;999.90;;;11.80;99.90;;;;;;5114809;28;20027;-75
2023/02/17 03:37:03;;;;;;;1999.90;999.90;;;11.80;99.90;;;;;;5114419;28;20506;-75
2023/02/17 03:39:29;;;;;;;1999.90;999.90;;;11.80;99.90;;;;;;5095540;28;20032;-74
2023/02/17 03:41:54;;;;;;;1999.90;999.90;;;11.80;99.90;;;;;;5094178;28;20115;-75
2023/02/17 03:44:20;;;;;;;1999.90;999.90;;;11.80;99.90;;;;;;5093592;28;20056;-75
2023/02/17 03:46:46;;;;;;;1999.90;999.90;;;11.90;99.90;;;;;;5107984;28;20059;-75
2023/02/17 03:49:12;;;;;;;1999.90;999.90;;;11.80;99.90;;;;;;5114360;28;20502;-75
2023/02/17 03:51:38;;;;;;;1999.90;999.90;;;11.80;99.90;;;;;;5114230;28;20532;-75
2023/02/17 03:54:04;;;;;;;1999.90;999.90;;;11.80;99.90;;;;;;5114351;28;20027;-74
2023/02/17 03:56:30;;;;;;;1999.90;999.90;;;11.80;99.90;;;;;;5114171;28;20077;-75
2023/02/17 03:58:55;;;;;;;1999.90;999.90;;;11.80;99.90;;;;;;5114174;28;20028;-80
2023/02/17 04:01:21;;;;;;;1999.90;999.90;;;11.80;99.90;;;;;;5114115;28;20027;-80
2023/02/17 04:03:47;;;;;;;1999.90;999.90;;;11.90;99.90;;;;;;5114306;28;20038;-75
2023/02/17 04:06:13;;;;;;;1999.90;999.90;;;11.90;99.90;;;;;;5114200;28;20372;-74
2023/02/17 04:08:39;;;;;;;1999.90;999.90;;;11.90;99.90;;;;;;5114103;28;20035;-80
2023/02/17 04:11:06;;;;;;;1999.90;999.90;;;11.90;99.90;;;;;;5113701;28;20123;-80
2023/02/17 04:13:32;;;;;;;1999.90;999.90;;;11.90;99.90;;;;;;5114130;28;20027;-80
2023/02/17 04:16:00;;;;;;;1999.90;999.90;;;11.90;99.90;;;;;;5114317;28;20024;-75
2023/02/17 04:18:27;;;;;;;1999.90;999.90;;;11.90;99.90;;;;;;5113411;28;20026;-75
2023/02/17 04:20:53;;;;;;;1999.90;999.90;;;11.80;99.90;;;;;;5114107;28;20031;-75
2023/02/17 04:23:19;;;;;;;1999.90;999.90;;;11.90;99.90;;;;;;5113535;28;20035;-74
2023/02/17 04:25:46;;;;;;;1999.90;999.90;;;11.90;99.90;;;;;;5113699;28;20094;-76
2023/02/17 04:28:13;;;;;;;1999.90;999.90;;;11.80;99.90;;;;;;5113787;28;20032;-74
2023/02/17 04:30:39;;;;;;;1999.90;999.90;;;11.90;99.90;;;;;;5112549;28;20092;-75
2023/02/17 04:33:04;;;;;;;1999.90;999.90;;;11.90;99.90;;;;;;5113320;28;20480;-74
2023/02/17 04:35:30;;;;;;;1999.90;999.90;;;11.80;99.90;;;;;;5113491;28;20023;-75
2023/02/17 04:37:56;;;;;;;1999.90;999.90;;;11.80;99.90;;;;;;5107352;28;20021;-74
2023/02/17 04:40:22;;;;;;;1999.90;999.90;;;11.80;99.90;;;;;;5093162;28;20020;-74
2023/02/17 04:42:47;;;;;;;1999.90;999.90;;;11.80;99.90;;;;;;5112416;28;20059;-74
2023/02/17 04:45:13;;;;;;;1999.90;999.90;;;11.80;99.90;;;;;;5105646;28;20066;-80
2023/02/17 04:47:39;;;;;;;1999.90;999.90;;;11.90;99.90;;;;;;5092972;28;20540;-80
2023/02/17 04:50:07;;;;;;;1999.90;999.90;;;11.90;99.90;;;;;;5093079;28;20032;-80
2023/02/17 04:52:33;;;;;;;1999.90;999.90;;;11.90;99.90;;;;;;5093022;28;20474;-75
2023/02/17 04:54:59;;;;;;;1999.90;999.90;;;11.90;99.90;;;;;;5092584;28;20020;-75
2023/02/17 04:57:24;;;;;;;1999.90;999.90;;;11.90;99.90;;;;;;5092909;28;20031;-74
2023/02/17 04:59:50;;;;;;;1999.90;999.90;;;11.90;99.90;;;;;;5092543;28;20473;-75
2023/02/17 05:02:15;;;;;;;1999.90;999.90;;;11.90;99.90;;;;;;5093276;28;20024;-74
2023/02/17 05:04:41;;;;;;;1999.90;999.90;;;11.90;99.90;;;;;;5092784;28;20077;-75
2023/02/17 05:07:07;;;;;;;1999.90;999.90;;;11.90;99.90;;;;;;5092940;28;20036;-74
2023/02/17 05:09:32;;;;;;;1999.90;999.90;;;11.90;99.90;;;;;;5079412;28;20033;-74
2023/02/17 05:11:58;;;;;;;1999.90;999.90;;;11.90;99.90;;;;;;5092690;28;20510;-74
2023/02/17 05:14:23;;;;;;;1999.90;999.90;;;11.90;99.90;;;;;;5092654;28;20052;-74
2023/02/17 05:16:49;;;;;;;1999.90;999.90;;;11.90;99.90;;;;;;5092501;28;20028;-80
2023/02/17 05:19:15;;;;;;;1999.90;999.90;;;11.90;99.90;;;;;;5092218;28;20023;-74
2023/02/17 05:21:40;;;;;;;1999.90;999.90;;;12.00;99.90;;;;;;5092334;28;20081;-74
2023/02/17 05:24:06;;;;;;;1999.90;999.90;;;12.00;99.90;;;;;;5092549;28;20028;-74
2023/02/17 05:26:31;;;;;;;1999.90;999.90;;;12.00;99.90;;;;;;5092270;28;20032;-74
2023/02/17 05:28:57;;;;;;;1999.90;999.90;;;12.00;99.90;;;;;;5092186;28;20048;-79
2023/02/17 05:31:23;;;;;;;1999.90;999.90;;;12.00;99.90;;;;;;5092026;28;20652;-78
2023/02/17 05:33:48;;;;;;;1999.90;999.90;;;12.00;99.90;;;;;;5092231;28;20070;-74
2023/02/17 05:36:14;;;;;;;1999.90;999.90;;;12.00;99.90;;;;;;5092496;28;20473;-75
2023/02/17 05:38:40;;;;;;;1999.90;999.90;;;12.00;99.90;;;;;;5091676;28;20020;-74
2023/02/17 05:41:06;;;;;;;1999.90;999.90;;;12.00;99.90;;;;;;5091382;28;20032;-74
2023/02/17 05:43:32;;;;;;;1999.90;999.90;;;12.00;99.90;;;;;;5091578;28;20539;-79
2023/02/17 05:46:04;;;;;;;1999.90;999.90;;;12.00;99.90;;;;;;5089615;28;20083;-80
2023/02/17 05:48:30;;;;;;;1999.90;999.90;;;12.00;99.90;;;;;;5092414;28;20024;-75
2023/02/17 05:50:56;;;;;;;1999.90;999.90;;;12.00;99.90;;;;;;5091370;28;20043;-74
2023/02/17 05:53:22;;;;;;;1999.90;999.90;;;12.00;99.90;;;;;;5091913;28;20016;-74
2023/02/17 05:55:47;;;;;;;1999.90;999.90;;;12.00;99.90;;;;;;5091964;28;20054;-76
2023/02/17 05:58:13;;;;;;;1999.90;999.90;;;12.00;99.90;;;;;;5091918;28;20450;-75
2023/02/17 06:00:38;;;;;;;1999.90;999.90;;;12.00;99.90;;;;;;5092100;28;20031;-75
2023/02/17 06:03:04;;;;;;;1999.90;999.90;;;11.90;99.90;;;;;;5091833;28;20130;-75
2023/02/17 06:05:30;;;;;;;1999.90;999.90;;;11.90;99.90;;;;;;5091819;28;20396;-75
2023/02/17 06:07:55;;;;;;;1999.90;999.90;;;11.90;99.90;;;;;;5092237;28;20574;-80
2023/02/17 06:10:21;;;;;;;1999.90;999.90;;;11.90;99.90;;;;;;5092027;28;20686;-75
2023/02/17 06:12:47;;;;;;;1999.90;999.90;;;11.90;99.90;;;;;;5091760;28;20028;-74
2023/02/17 06:15:12;;;;;;;1999.90;999.90;;;11.90;99.90;;;;;;5091643;28;20028;-75
2023/02/17 06:17:38;;;;;;;1999.90;999.90;;;11.90;99.90;;;;;;5091731;28;20024;-75
2023/02/17 06:20:04;;;;;;;1999.90;999.90;;;11.90;99.90;;;;;;5092126;28;20055;-75
2023/02/17 06:22:30;;;;;;;1999.90;999.90;;;11.90;99.90;;;;;;5091715;28;20070;-75
2023/02/17 06:24:56;;;;;;;1999.90;999.90;;;11.80;99.90;;;;;;5091752;28;20028;-80
2023/02/17 06:27:21;;;;;;;1999.90;999.90;;;11.80;99.90;;;;;;5091395;28;20515;-80
2023/02/17 06:29:47;;;;;;;1999.90;999.90;;;11.80;99.90;;;;;;5091725;28;20052;-75
2023/02/17 06:32:12;;;;;;;1999.90;999.90;;;11.80;99.90;;;;;;5089334;28;20026;-75
2023/02/17 06:34:38;;;;;;;1999.90;999.90;;;11.80;99.90;;;;;;5072515;28;20081;-74
2023/02/17 06:37:04;;;;;;;1999.90;999.90;;;11.80;99.90;;;;;;5077670;28;20027;-79
2023/02/17 06:39:29;;;;;;;1999.90;999.90;;;11.80;99.90;;;;;;5091279;28;20024;-75
2023/02/17 06:41:55;;;;;;;1999.90;999.90;;;11.80;99.90;;;;;;5091142;28;20020;-75
2023/02/17 06:44:21;;;;;;;1999.90;999.90;;;11.80;99.90;;;;;;5077853;28;20036;-75
2023/02/17 06:46:46;;;;;;;1999.90;999.90;;;11.80;99.90;;;;;;5082110;28;20040;-75
2023/02/17 06:49:13;;;;;;;1999.90;999.90;;;11.80;99.90;;;;;;5076336;28;20032;-80
2023/02/17 06:51:38;;;;;;;1999.90;999.90;;;11.80;99.90;;;;;;5089524;28;20027;-80
2023/02/17 06:54:04;;;;;;;1999.90;999.90;;;11.80;99.90;;;;;;5090311;28;20023;-80
2023/02/17 06:56:30;;;;;;;1999.90;999.90;;;11.90;99.90;;;;;;5115354;28;20020;-75
2023/02/17 06:58:55;;;;;;;1999.90;999.90;;;11.90;99.90;;;;;;5096579;28;20047;-75
2023/02/17 07:01:27;;;;;;;1999.90;999.90;;;11.90;99.90;;;;;;5094697;28;20035;-81
2023/02/17 07:03:53;;;;;;;1999.90;999.90;;;11.90;99.90;;;;;;5093075;28;20089;-79
2023/02/17 07:06:20;;;;;;;1999.90;999.90;;;11.90;99.90;;;;;;5087824;28;20024;-81
2023/02/17 07:08:45;;;;;;;1999.90;999.90;;;12.00;99.90;;;;;;5093929;28;20032;-80
2023/02/17 07:11:13;;;;;;;1999.90;999.90;;;12.00;99.90;;;;;;5094079;28;20485;-75
2023/02/17 07:13:42;;;;;;;1999.90;999.90;;;12.00;99.90;;;;;;5089885;28;20020;-80
2023/02/17 07:16:09;;;;;;;1999.90;999.90;;;12.00;99.90;;;;;;5089926;28;20114;-75
2023/02/17 07:18:36;;;;;;;1999.90;999.90;;;12.00;99.90;;;;;;5091658;28;20035;-79
2023/02/17 07:21:03;;;;;;;1999.90;999.90;;;12.00;99.90;;;;;;5092250;28;20519;-75
2023/02/17 07:23:29;;;;;;;1999.90;999.90;;;12.00;99.90;;;;;;5082516;28;20095;-74
2023/02/17 07:25:55;;;;;;;1999.90;999.90;;;12.00;99.90;;;;;;5091997;28;20496;-80
2023/02/17 07:28:20;;;;;;;1999.90;999.90;;;12.00;99.90;;;;;;5082532;28;20047;-80
2023/02/17 07:30:46;;;;;;;1999.90;999.90;;;12.00;99.90;;;;;;5087217;28;20043;-80
2023/02/17 07:33:12;;;;;;;1999.90;999.90;;;12.00;99.90;;;;;;5082632;28;20598;-80
2023/02/17 07:35:42;;;;;;;1999.90;999.90;;;11.90;99.90;;;;;;5089362;28;20047;-75
2023/02/17 07:38:09;;;;;;;1999.90;999.90;;;11.90;99.90;;;;;;5082120;28;20395;-75
2023/02/17 07:40:35;;;;;;;1999.90;999.90;;;11.80;99.90;;;;;;5090275;28;20025;-80
2023/02/17 07:43:00;;;;;;;1999.90;999.90;;;11.80;99.90;;;;;;5090351;28;20024;-77
2023/02/17 07:45:26;;;;;;;1999.90;999.90;;;11.80;99.90;;;;;;5086972;28;20043;-79
2023/02/17 07:47:52;;;;;;;1999.90;999.90;;;11.80;99.90;;;;;;5090767;28;20548;-74
2023/02/17 07:50:18;;;;;;;1999.90;999.90;;;11.90;99.90;;;;;;5090269;28;20106;-75
2023/02/17 07:52:43;;;;;;;1999.90;999.90;;;11.90;99.90;;;;;;5089250;28;20042;-80
2023/02/17 07:55:09;;;;;;;1999.90;999.90;;;11.90;99.90;;;;;;5087739;28;20032;-80
2023/02/17 07:57:34;;;;;;;1999.90;999.90;;;11.90;99.90;;;;;;5090106;28;20452;-80
2023/02/17 08:00:00;;;;;;;1999.90;999.90;;;11.90;99.90;;;;;;5083195;28;20181;-74
2023/02/17 08:02:26;;;;;;;1999.90;999.90;;;12.00;99.90;;;;;;5089413;28;20106;-77
2023/02/17 08:04:51;;;;;;;1999.90;999.90;;;12.00;99.90;;;;;;5088179;28;20502;-74
2023/02/17 08:07:18;;;;;;;1999.90;999.90;;;12.00;99.90;;;;;;5075847;28;20133;-75
2023/02/17 08:15:12;;;;;;;1999.90;999.90;;;12.00;99.90;;;;;;5088072;28;20077;-73
2023/02/17 08:17:38;;;;;;;1999.90;999.90;;;12.00;99.90;;;;;;5073157;28;20442;-74
2023/02/17 08:20:05;;;;;;;1999.90;999.90;;;12.10;99.90;;;;;;5088720;28;20028;-75
2023/02/17 08:22:31;;;;;;;1999.90;999.90;;;12.20;99.90;;;;;;5089194;28;20024;-79
2023/02/17 08:24:56;;;;;;;1999.90;999.90;;;12.30;99.90;;;;;;5088191;28;20459;-79
2023/02/17 08:27:22;;;;;;;1999.90;999.90;;;12.30;99.90;;;;;;5088746;28;20016;-80
2023/02/17 08:29:48;;;;;;;1999.90;999.90;;;12.40;99.90;;;;;;5086247;28;20039;-75
2023/02/17 08:32:15;;;;;;;1999.90;999.90;;;12.50;99.90;;;;;;5087413;28;20040;-78
2023/02/17 08:34:40;;;;;;;1999.90;999.90;;;12.50;99.90;;;;;;5085541;28;20115;-75
2023/02/17 08:37:06;;;;;;;1999.90;999.90;;;12.60;99.90;;;;;;5080113;28;20095;-75
2023/02/17 08:39:33;;;;;;;1999.90;999.90;;;12.60;99.90;;;;;;5081691;28;20123;-80
2023/02/17 08:41:59;;;;;;;1999.90;999.90;;;12.70;99.90;;;;;;5086850;28;20509;-75
2023/02/17 08:44:25;;;;;;;1999.90;999.90;;;12.70;99.90;;;;;;5083121;28;20077;-75
2023/02/17 08:46:51;;;;;;;1999.90;999.90;;;12.80;99.90;;;;;;5085973;28;20474;-75
2023/02/17 08:49:21;;;;;;;1999.90;999.90;;;12.90;99.90;;;;;;5088405;28;20028;-80
2023/02/17 08:51:47;;;;;;;1999.90;999.90;;;12.90;99.90;;;;;;5087964;28;20032;-75
2023/02/17 08:54:13;;;;;;;1999.90;999.90;;;12.90;99.90;;;;;;5087259;28;20093;-76
2023/02/17 08:56:40;;;;;;;1999.90;999.90;;;13.00;99.90;;;;;;5087712;28;20035;-82
2023/02/17 08:59:08;;;;;;;1999.90;999.90;;;12.90;99.90;;;;;;5086147;28;20027;-81
2023/02/17 09:01:34;;;;;;;1999.90;999.90;;;12.90;99.90;;;;;;5086178;28;20624;-78
2023/02/17 09:04:02;;;;;;;1999.90;999.90;;;13.00;99.90;;;;;;5077425;28;20826;-82
2023/02/17 09:06:44;;;;;;;1999.90;999.90;;;12.90;99.90;;;;;;5084365;28;21374;-76
2023/02/17 09:09:12;;;;;;;1999.90;999.90;;;12.90;99.90;;;;;;5077446;28;20338;-76
2023/02/17 09:11:37;;;;;;;1999.90;999.90;;;12.90;99.90;;;;;;5083750;28;20077;-83
2023/02/17 09:14:04;;;;;;;1999.90;999.90;;;12.80;99.90;;;;;;5076872;28;20024;-76
2023/02/17 09:16:30;;;;;;;1999.90;999.90;;;12.70;99.90;;;;;;5081752;28;20114;-82
2023/02/17 09:18:56;;;;;;;1999.90;999.90;;;12.80;99.90;;;;;;5082570;28;20214;-76
2023/02/17 09:21:21;;;;;;;1999.90;999.90;;;12.90;99.90;;;;;;5076959;28;20115;-76
2023/02/17 09:23:47;;;;;;;1999.90;999.90;;;12.90;99.90;;;;;;5079678;28;20508;-75
2023/02/17 09:26:15;;;;;;;1999.90;999.90;;;13.10;99.90;;;;;;5085706;28;20028;-81
2023/02/17 09:28:41;;;;;;;1999.90;999.90;;;13.00;99.90;;;;;;5086755;28;20028;-81
2023/02/17 09:31:23;;;;;;;1999.90;999.90;;;13.00;99.90;;;;;;5085063;28;20032;-75
2023/02/17 09:33:50;;;;;;;1999.90;999.90;;;13.10;99.90;;;;;;5085630;28;20111;-75
2023/02/17 09:36:18;;;;;;;1999.90;999.90;;;13.30;99.90;;;;;;5084236;28;20032;-80
2023/02/17 09:38:45;;;;;;;1999.90;999.90;;;13.20;99.90;;;;;;5086883;28;20024;-80
2023/02/17 09:41:16;;;;;;;1999.90;999.90;;;13.10;99.90;;;;;;5085079;28;20042;-80
2023/02/17 09:43:42;;;;;;;1999.90;999.90;;;13.30;99.90;;;;;;5081144;28;20663;-80
2023/02/17 09:46:15;;;;;;;1999.90;999.90;;;13.20;99.90;;;;;;5084478;28;20055;-75
2023/02/17 09:48:41;;;;;;;;;;;13.30;99.90;;;;;;5081663;28;20399;-75
2023/02/17 09:51:24;;;;;;;1999.90;999.90;;;13.20;99.90;;;;;;5079811;28;19935;-75
2023/02/17 09:54:05;;;;;;;1999.90;999.90;;;13.30;99.90;;;;;;5081101;28;20488;-80
2023/02/17 09:56:40;;;;;;;1999.90;999.90;;;13.40;99.90;;;;;;5086158;28;20140;-75
2023/02/17 09:59:13;;;;;;;1999.90;999.90;;;13.50;99.90;;;;;;5082032;28;20031;-80
2023/02/17 10:01:41;;;;;;;1999.90;999.90;;;13.50;99.90;;;;;;5086890;28;20039;-75
2023/02/17 10:04:15;;;;;;;1999.90;999.90;;;13.60;99.90;;;;;;5081137;28;20119;-75
2023/02/17 10:06:46;;;;;;;1999.90;999.90;;;13.50;99.90;;;;;;5084143;28;20385;-80
2023/02/17 10:09:12;;;;;;;1999.90;999.90;;;13.40;99.90;;;;;;5085367;28;20050;-80
2023/02/17 10:11:49;;;;;;;1999.90;999.90;;;13.50;99.90;;;;;;5087434;28;20087;-75
2023/02/17 10:14:23;;;;;;;1999.90;999.90;;;13.50;99.90;;;;;;5080961;28;20035;-76
2023/02/17 10:16:59;;;;;;;1999.90;999.90;;;13.50;99.90;;;;;;5080265;28;20060;-80
2023/02/17 10:19:29;;;;;;;1999.90;999.90;;;13.40;99.90;;;;;;5081763;28;20036;-75
2023/02/17 10:22:13;;;;;;;1999.90;999.90;;;13.50;99.90;;;;;;5085312;28;20032;-78
2023/02/17 10:24:39;;;;;;;1999.90;999.90;;;13.50;99.90;;;;;;5080687;28;20475;-75
2023/02/17 10:27:13;;;;;;;1999.90;999.90;;;13.70;99.90;;;;;;5087637;28;20112;-75
2023/02/17 10:29:39;;;;;;;1999.90;999.90;;;13.80;99.90;;;;;;5090322;28;20059;-75
2023/02/17 10:32:04;;;;;;;1999.90;999.90;;;13.60;99.90;;;;;;5083780;28;20496;-76
2023/02/17 10:34:35;;;;;;;1999.90;999.90;;;13.90;99.90;;;;;;5089351;28;20024;-81
2023/02/17 10:37:04;;;;;;;1999.90;999.90;;;14.00;99.90;;;;;;5090485;28;20075;-76
2023/02/17 10:39:35;;;;;;;1999.90;999.90;;;13.90;99.90;;;;;;5069599;28;20047;-76
2023/02/17 10:42:01;;;;;;;1999.90;999.90;;;13.80;99.90;;;;;;5089538;28;20505;-82
2023/02/17 10:44:27;;;;;;;1999.90;999.90;;;14.00;99.90;;;;;;5091225;28;20035;-81
2023/02/17 10:46:53;;;;;;;1999.90;999.90;;;14.00;99.90;;;;;;5087995;28;20123;-76
2023/02/17 10:49:35;;;;;;;1999.90;999.90;;;13.80;99.90;;;;;;5079709;28;20028;-76
2023/02/17 10:52:11;;;;;;;1999.90;999.90;;;13.90;99.90;;;;;;5090028;28;20122;-76
2023/02/17 10:54:51;;;;;;;1999.90;999.90;;;13.80;99.90;;;;;;5090412;28;20114;-82
2023/02/17 10:57:19;;;;;;;1999.90;999.90;;;13.90;99.90;;;;;;5091683;28;20032;-80
2023/02/17 10:59:47;;;;;;;1999.90;999.90;;;14.00;99.90;;;;;;5086814;28;20051;-84
2023/02/17 11:02:21;;;;;;;1999.90;999.90;;;13.80;99.90;;;;;;5086580;28;20020;-77
2023/02/17 11:04:53;;;;;;;1999.90;999.90;;;13.90;99.90;;;;;;5091073;28;20485;-77
2023/02/17 11:07:30;;;;;;;1999.90;999.90;;;13.90;99.90;;;;;;5090857;28;20476;-83
2023/02/17 11:10:00;;;;;;;1999.90;999.90;;;14.00;99.90;;;;;;5084377;28;20447;-76
2023/02/17 11:12:39;;;;;;;1999.90;999.90;;;14.10;99.90;;;;;;5091185;28;20024;-84
2023/02/17 11:15:18;;;;;;;1999.90;999.90;;;13.90;99.90;;;;;;5086472;28;20028;-77
2023/02/17 11:17:45;;;;;;;1999.90;999.90;;;14.10;99.90;;;;;;5090670;28;20622;-83
2023/02/17 11:20:14;;;;;;;1999.90;999.90;;;14.10;99.90;;;;;;5090889;28;20036;-77
2023/02/17 11:22:45;;;;;;;1999.90;999.90;;;14.20;99.90;;;;;;5095986;28;20055;-82
2023/02/17 11:25:26;;;;;;;1999.90;999.90;;;13.90;99.90;;;;;;5083596;28;20087;-77
2023/02/17 11:27:55;;;;;;;1999.90;999.90;;;13.80;99.90;;;;;;5084209;28;20067;-81
2023/02/17 11:30:22;;;;;;;1999.90;999.90;;;13.90;99.90;;;;;;5086927;28;20040;-77
2023/02/17 11:32:48;;;;;;;1999.90;999.90;;;14.10;99.90;;;;;;5078845;28;20408;-77
2023/02/17 11:35:41;;;;;;;1999.90;999.90;;;13.90;99.90;;;;;;5080970;28;20511;-82
2023/02/17 11:38:25;;;;;;;1999.90;999.90;;;14.00;99.90;;;;;;5077013;28;20020;-78
2023/02/17 11:41:00;;;;;;;1999.90;999.90;;;14.00;99.90;;;;;;5090204;28;20043;-83
2023/02/17 11:43:27;;;;;;;1999.90;999.90;;;13.90;99.90;;;;;;5087402;28;20028;-78
2023/02/17 11:46:18;;;;;;;1999.90;999.90;;;13.80;99.90;;;;;;5081693;28;20409;-79
2023/02/17 11:49:21;;;;;;;1999.90;999.90;;;13.70;99.90;;;;;;5082440;28;20024;-83
2023/02/17 11:52:02;;;;;;;1999.90;999.90;;;13.80;99.90;;;;;;5088772;28;20035;-83
2023/02/17 11:54:54;;;;;;;1999.90;999.90;;;13.90;99.90;;;;;;5089021;28;20082;-78
2023/02/17 11:57:43;;;;;;;1999.90;999.90;;;14.10;99.90;;;;;;5088095;28;20016;-78
2023/02/17 12:00:36;;;;;;;1999.90;999.90;;;14.10;99.90;;;;;;5083548;28;20035;-82
2023/02/17 12:03:08;;;;;;;1999.90;999.90;;;14.00;99.90;;;;;;5088644;28;20037;-81
2023/02/17 12:06:15;;;;;;;1999.90;999.90;;;14.00;99.90;;;;;;5090647;28;20516;-83
2023/02/17 12:08:56;;;;;;;1999.90;999.90;;;14.20;99.90;;;;;;5056905;28;20048;-78
2023/02/17 12:12:14;;;;;;;1999.90;999.90;;;14.30;99.90;;;;;;5083694;28;20136;-78
2023/02/17 12:14:55;;;;;;;1999.90;999.90;;;14.20;99.90;;;;;;5016776;28;20497;-82